Time;durP1;ratioP1;P1;durP2;ratioP2;P2;SDS_P1;SDS_P2;PMS_P1;PMS_P2;Temp;Humidity;BMP_temperature;BMP_pressure;BME280_temperature;BME280_humidity;BME280_pressure;Samples;Min_cycle;Max_cycle;Signal;HPM_P1;HPM_P2
2023/04/27 00:01:47;;;;;;;12.77;5.53;;;6.10;99.90;;;;;;6213348;23;20028;-81
2023/04/27 00:04:13;;;;;;;9.65;4.20;;;6.20;99.90;;;;;;6214381;23;20001;-81
2023/04/27 00:06:39;;;;;;;6.13;4.70;;;6.10;99.90;;;;;;6213831;23;20020;-83
2023/04/27 00:09:04;;;;;;;9.60;5.10;;;6.10;99.90;;;;;;6213854;23;20030;-83
2023/04/27 00:11:30;;;;;;;7.95;5.20;;;6.20;99.90;;;;;;6216430;23;20028;-81
2023/04/27 00:13:56;;;;;;;6.95;4.30;;;6.10;99.90;;;;;;6216257;23;20008;-82
2023/04/27 00:16:21;;;;;;;8.85;4.90;;;6.10;99.90;;;;;;6217123;23;20008;-83
2023/04/27 00:18:46;;;;;;;5.72;4.55;;;6.10;99.90;;;;;;6213419;23;20050;-81
2023/04/27 00:21:12;;;;;;;9.18;5.05;;;6.10;99.90;;;;;;6214316;23;20488;-82
2023/04/27 00:23:38;;;;;;;6.57;4.55;;;6.10;99.90;;;;;;6213457;23;20076;-82
2023/04/27 00:26:03;;;;;;;10.35;5.10;;;6.10;99.90;;;;;;6213333;23;20017;-82
2023/04/27 00:28:29;;;;;;;6.07;4.60;;;6.10;99.90;;;;;;6213786;23;20313;-82
2023/04/27 00:30:54;;;;;;;7.47;4.57;;;6.00;99.90;;;;;;6214378;23;20047;-81
2023/04/27 00:33:20;;;;;;;7.35;4.97;;;6.00;99.90;;;;;;6214325;23;20010;-83
2023/04/27 00:35:46;;;;;;;8.27;5.20;;;6.00;99.90;;;;;;6214096;23;20039;-83
2023/04/27 00:38:11;;;;;;;7.75;4.75;;;6.00;99.90;;;;;;6214537;23;20001;-82
2023/04/27 00:40:37;;;;;;;8.20;4.95;;;6.00;99.90;;;;;;6187692;23;20006;-83
2023/04/27 00:43:03;;;;;;;8.43;5.03;;;6.10;99.90;;;;;;6214338;23;20055;-82
2023/04/27 00:45:28;;;;;;;8.98;5.30;;;6.10;99.90;;;;;;6214680;23;20075;-82
2023/04/27 00:47:54;;;;;;;7.80;5.20;;;6.10;99.90;;;;;;6216291;23;20084;-82
2023/04/27 00:50:30;;;;;;;8.30;5.18;;;6.10;99.90;;;;;;6214816;23;20010;-83
2023/04/27 00:52:56;;;;;;;10.85;5.80;;;6.10;99.90;;;;;;6216312;23;20004;-84
2023/04/27 00:55:25;;;;;;;8.13;5.28;;;6.10;99.90;;;;;;6214824;23;20051;-82
2023/04/27 00:57:50;;;;;;;9.93;7.10;;;6.00;99.90;;;;;;6215665;23;20004;-83
2023/04/27 01:00:16;;;;;;;9.38;6.75;;;6.00;99.90;;;;;;6214142;23;20470;-83
2023/04/27 01:02:42;;;;;;;9.43;7.30;;;6.00;99.90;;;;;;6214907;23;20000;-83
2023/04/27 01:05:08;;;;;;;11.32;7.53;;;6.00;99.90;;;;;;6214008;23;20004;-84
2023/04/27 01:07:38;;;;;;;12.43;7.65;;;6.00;99.90;;;;;;6215313;23;20063;-82
2023/04/27 01:10:06;;;;;;;11.88;8.95;;;6.00;99.90;;;;;;6218131;23;20012;-81
2023/04/27 01:12:31;;;;;;;12.15;8.13;;;6.00;99.90;;;;;;6236287;23;19992;-80
2023/04/27 01:14:57;;;;;;;10.93;7.78;;;6.00;99.90;;;;;;6238970;22;20012;-80
2023/04/27 01:17:23;;;;;;;10.50;7.70;;;5.90;99.90;;;;;;6241372;22;20003;-83
2023/04/27 01:19:50;;;;;;;12.65;8.35;;;5.90;99.90;;;;;;6229517;22;20009;-80
2023/04/27 01:22:16;;;;;;;11.50;8.10;;;5.90;99.90;;;;;;6215664;23;20000;-81
2023/04/27 01:24:41;;;;;;;12.00;7.97;;;5.90;99.90;;;;;;6215811;23;20012;-80
2023/04/27 01:27:07;;;;;;;9.52;7.70;;;5.90;99.90;;;;;;6215688;23;20012;-82
2023/04/27 01:29:32;;;;;;;10.73;8.00;;;6.00;99.90;;;;;;6215250;23;20015;-81
2023/04/27 01:31:58;;;;;;;12.07;8.57;;;5.90;99.90;;;;;;6214699;23;20028;-81
2023/04/27 01:34:23;;;;;;;10.80;7.93;;;5.90;99.90;;;;;;6188373;23;20009;-82
2023/04/27 01:36:49;;;;;;;11.02;7.90;;;6.00;99.90;;;;;;6214433;23;20001;-81
2023/04/27 01:39:15;;;;;;;11.48;7.45;;;5.90;99.90;;;;;;6214581;23;20004;-82
2023/04/27 01:41:40;;;;;;;13.40;8.50;;;6.00;99.90;;;;;;6214232;23;20028;-82
2023/04/27 01:44:06;;;;;;;11.68;7.70;;;5.90;99.90;;;;;;6214093;23;20413;-83
2023/04/27 01:46:31;;;;;;;12.07;6.57;;;5.90;99.90;;;;;;6213839;23;20016;-81
2023/04/27 01:48:57;;;;;;;7.28;6.25;;;5.90;99.90;;;;;;6213860;23;20399;-80
2023/04/27 01:51:22;;;;;;;11.05;6.75;;;5.90;99.90;;;;;;6214478;23;20035;-81
2023/04/27 01:53:48;;;;;;;9.10;6.60;;;5.90;99.90;;;;;;6214013;23;20062;-82
2023/04/27 01:56:14;;;;;;;10.32;6.82;;;5.90;99.90;;;;;;6214464;23;20059;-81
2023/04/27 01:58:40;;;;;;;10.57;6.72;;;5.90;99.90;;;;;;6214181;23;20009;-82
2023/04/27 02:01:05;;;;;;;9.25;6.75;;;5.80;99.90;;;;;;6213495;23;20001;-82
2023/04/27 02:03:31;;;;;;;9.23;6.18;;;5.80;99.90;;;;;;6213168;23;20043;-81
2023/04/27 02:05:56;;;;;;;10.82;5.85;;;5.80;99.90;;;;;;6213158;23;20012;-81
2023/04/27 02:08:22;;;;;;;9.13;6.00;;;5.80;99.90;;;;;;6212113;23;20011;-82
2023/04/27 02:10:47;;;;;;;8.13;5.95;;;5.80;99.90;;;;;;6212623;23;20321;-82
2023/04/27 02:13:13;;;;;;;9.35;5.60;;;5.80;99.90;;;;;;6212105;23;20001;-83
2023/04/27 02:15:38;;;;;;;8.35;5.60;;;5.80;99.90;;;;;;6213788;23;20008;-81
2023/04/27 02:18:04;;;;;;;8.80;5.25;;;5.70;99.90;;;;;;6210946;23;20036;-83
2023/04/27 02:20:31;;;;;;;7.03;5.32;;;5.80;99.90;;;;;;6186382;23;20017;-82
2023/04/27 02:22:57;;;;;;;9.15;5.90;;;5.70;99.90;;;;;;6213320;23;20507;-83
2023/04/27 02:25:22;;;;;;;8.38;5.03;;;5.70;99.90;;;;;;6214053;23;20033;-81
2023/04/27 02:27:48;;;;;;;8.55;5.68;;;5.70;99.90;;;;;;6186664;23;20151;-82
2023/04/27 02:30:14;;;;;;;8.25;5.03;;;5.70;99.90;;;;;;6214191;23;20007;-81
2023/04/27 02:32:40;;;;;;;7.28;5.25;;;5.70;99.90;;;;;;6214144;23;20383;-83
2023/04/27 02:35:07;;;;;;;8.88;5.15;;;5.70;99.90;;;;;;6214268;23;20087;-82
2023/04/27 02:37:33;;;;;;;6.53;4.65;;;5.70;99.90;;;;;;6213572;23;20001;-83
2023/04/27 02:39:59;;;;;;;6.88;4.88;;;5.70;99.90;;;;;;6213908;23;20008;-82
2023/04/27 02:42:25;;;;;;;6.93;4.32;;;5.70;99.90;;;;;;6214856;23;20375;-82
2023/04/27 02:44:50;;;;;;;7.55;4.88;;;5.70;99.90;;;;;;6215612;23;20005;-82
2023/04/27 02:47:16;;;;;;;7.07;4.82;;;5.70;99.90;;;;;;6216917;23;20032;-81
2023/04/27 02:49:42;;;;;;;6.13;4.35;;;5.70;99.90;;;;;;6216314;23;20008;-82
2023/04/27 02:52:07;;;;;;;8.77;4.78;;;5.60;99.90;;;;;;6216599;23;20027;-81
2023/04/27 02:54:33;;;;;;;7.15;4.13;;;5.70;99.90;;;;;;6216007;23;20000;-81
2023/04/27 02:56:59;;;;;;;9.02;4.68;;;5.60;99.90;;;;;;6215780;23;20027;-84
2023/04/27 02:59:25;;;;;;;7.70;4.30;;;5.70;99.90;;;;;;6216371;23;20000;-82
2023/04/27 03:01:51;;;;;;;8.35;4.40;;;5.70;99.90;;;;;;6215463;23;20051;-81
2023/04/27 03:04:16;;;;;;;9.30;4.20;;;5.60;99.90;;;;;;6215389;23;20008;-81
2023/04/27 03:06:42;;;;;;;7.38;4.22;;;5.60;99.90;;;;;;6188048;23;20016;-82
2023/04/27 03:09:11;;;;;;;8.88;3.90;;;5.60;99.90;;;;;;6213082;23;20013;-82
2023/04/27 03:11:37;;;;;;;8.43;4.57;;;5.60;99.90;;;;;;6212808;23;20001;-81
2023/04/27 03:14:03;;;;;;;6.05;4.32;;;5.60;99.90;;;;;;6212952;23;20078;-82
2023/04/27 03:16:33;;;;;;;6.63;3.88;;;5.60;99.90;;;;;;6214103;23;20008;-81
2023/04/27 03:18:58;;;;;;;6.63;3.80;;;5.60;99.90;;;;;;6214589;23;20012;-83
2023/04/27 03:21:24;;;;;;;9.52;5.03;;;5.60;99.90;;;;;;6214880;23;20031;-82
2023/04/27 03:23:49;;;;;;;6.30;4.40;;;5.60;99.90;;;;;;6215164;23;20035;-83
2023/04/27 03:26:15;;;;;;;9.32;4.32;;;5.60;99.90;;;;;;6188487;23;20013;-82
2023/04/27 03:28:41;;;;;;;11.32;4.38;;;5.60;99.90;;;;;;6214797;23;20032;-84
2023/04/27 03:31:08;;;;;;;10.68;4.68;;;5.50;99.90;;;;;;6215699;23;20001;-81
2023/04/27 03:33:35;;;;;;;7.38;4.15;;;5.50;99.90;;;;;;6215211;23;20008;-84
2023/04/27 03:36:01;;;;;;;9.95;4.68;;;5.50;99.90;;;;;;6215913;23;20032;-81
2023/04/27 03:38:27;;;;;;;9.55;4.47;;;5.50;99.90;;;;;;6214440;23;20005;-84
2023/04/27 03:40:53;;;;;;;7.53;4.38;;;5.50;99.90;;;;;;6215570;23;20000;-81
2023/04/27 03:43:20;;;;;;;7.55;4.68;;;5.50;99.90;;;;;;6215200;23;20373;-83
2023/04/27 03:45:46;;;;;;;8.20;4.25;;;5.50;99.90;;;;;;6188081;23;20341;-84
2023/04/27 03:48:13;;;;;;;8.07;5.05;;;5.50;99.90;;;;;;6214521;23;20001;-84
2023/04/27 03:50:39;;;;;;;8.30;4.55;;;5.50;99.90;;;;;;6215134;23;20378;-83
2023/04/27 03:53:05;;;;;;;8.52;4.18;;;5.50;99.90;;;;;;6214466;23;20007;-82
2023/04/27 03:55:31;;;;;;;12.82;4.75;;;5.50;99.90;;;;;;6216169;23;20052;-82
2023/04/27 03:57:56;;;;;;;7.97;4.47;;;5.50;99.90;;;;;;6220353;23;20024;-82
2023/04/27 04:00:22;;;;;;;6.05;4.10;;;5.50;99.90;;;;;;6224336;23;20001;-82
2023/04/27 04:02:48;;;;;;;4.85;3.60;;;5.50;99.90;;;;;;6225258;23;20021;-82
2023/04/27 04:05:14;;;;;;;9.10;4.35;;;5.50;99.90;;;;;;6225609;23;20020;-81
2023/04/27 04:07:43;;;;;;;7.30;4.25;;;5.60;99.90;;;;;;6198602;23;20019;-81
2023/04/27 04:10:09;;;;;;;6.80;4.20;;;5.60;99.90;;;;;;6219581;23;20005;-84
2023/04/27 04:12:35;;;;;;;9.52;4.85;;;5.60;99.90;;;;;;6188697;23;20008;-83
2023/04/27 04:15:01;;;;;;;9.50;4.47;;;5.70;99.90;;;;;;6216428;23;20013;-83
2023/04/27 04:17:27;;;;;;;8.23;4.95;;;5.70;99.90;;;;;;6216541;23;20000;-82
2023/04/27 04:19:52;;;;;;;8.95;5.28;;;5.70;99.90;;;;;;6216992;23;20054;-80
2023/04/27 04:22:18;;;;;;;8.43;4.40;;;5.70;99.90;;;;;;6216431;23;20302;-82
2023/04/27 04:24:43;;;;;;;14.05;5.82;;;5.70;99.90;;;;;;6216395;23;20028;-84
2023/04/27 04:27:09;;;;;;;8.23;4.53;;;5.70;99.90;;;;;;6217976;23;20080;-81
2023/04/27 04:29:35;;;;;;;6.25;4.28;;;5.70;99.90;;;;;;6191120;23;20008;-83
2023/04/27 04:32:00;;;;;;;8.13;4.35;;;5.80;99.90;;;;;;6217523;23;20087;-83
2023/04/27 04:34:28;;;;;;;10.82;5.13;;;5.90;99.90;;;;;;6231440;23;20001;-81
2023/04/27 04:36:56;;;;;;;8.23;4.40;;;5.90;99.90;;;;;;6237429;23;20004;-83
2023/04/27 04:39:21;;;;;;;5.90;3.85;;;6.00;99.90;;;;;;6242745;22;20165;-82
2023/04/27 04:41:50;;;;;;;12.55;5.22;;;6.10;99.90;;;;;;6240338;22;20031;-83
2023/04/27 04:44:16;;;;;;;6.40;4.80;;;6.10;99.90;;;;;;6215171;23;20019;-82
2023/04/27 04:46:41;;;;;;;11.73;4.82;;;6.20;99.90;;;;;;6188259;23;20017;-83
2023/04/27 04:49:08;;;;;;;9.95;4.57;;;6.20;99.90;;;;;;6215337;23;20527;-82
2023/04/27 04:51:33;;;;;;;11.35;4.90;;;6.30;99.90;;;;;;6215132;23;20007;-84
2023/04/27 04:53:59;;;;;;;10.20;5.35;;;6.30;99.90;;;;;;6215708;23;19997;-85
2023/04/27 04:56:25;;;;;;;11.52;4.45;;;6.30;99.90;;;;;;6214714;23;20011;-83
2023/04/27 04:58:50;;;;;;;10.02;4.55;;;6.40;99.90;;;;;;6214489;23;20007;-84
2023/04/27 05:01:16;;;;;;;11.30;4.68;;;6.50;99.90;;;;;;6215006;23;20107;-81
2023/04/27 05:03:41;;;;;;;9.88;4.60;;;6.50;99.90;;;;;;6215503;23;20035;-81
2023/04/27 05:06:07;;;;;;;9.90;4.53;;;6.60;99.90;;;;;;6214872;23;20357;-83
2023/04/27 05:08:32;;;;;;;9.20;4.72;;;6.70;99.90;;;;;;6214293;23;20000;-82
2023/04/27 05:10:58;;;;;;;8.73;4.68;;;6.70;99.90;;;;;;6214435;23;20024;-81
2023/04/27 05:13:23;;;;;;;6.95;4.03;;;6.80;99.90;;;;;;6213421;23;20015;-82
2023/04/27 05:15:50;;;;;;;7.80;4.22;;;6.90;99.90;;;;;;6211249;23;20001;-81
2023/04/27 05:18:16;;;;;;;9.30;4.53;;;6.80;99.90;;;;;;6214103;23;20000;-84
2023/04/27 05:20:41;;;;;;;10.63;4.22;;;6.90;99.90;;;;;;6217616;23;20380;-83
2023/04/27 05:23:07;;;;;;;8.65;4.15;;;6.90;99.90;;;;;;6218188;23;20031;-82
2023/04/27 05:25:40;;;;;;;11.18;4.30;;;7.00;99.90;;;;;;6218117;23;20737;-81
2023/04/27 05:28:07;;;;;;;10.63;4.50;;;7.20;99.90;;;;;;6217610;23;20024;-83
2023/04/27 05:30:33;;;;;;;11.70;4.40;;;7.40;99.90;;;;;;6220013;23;20321;-81
2023/04/27 05:32:58;;;;;;;10.50;4.13;;;9.10;99.90;;;;;;6194657;23;20001;-80
2023/04/27 05:35:24;;;;;;;13.30;5.93;;;10.80;99.90;;;;;;6191996;23;20028;-82
2023/04/27 05:37:49;;;;;;;14.40;6.95;;;12.10;99.90;;;;;;6222743;23;20012;-80
2023/04/27 05:40:15;;;;;;;9.48;4.57;;;13.40;99.90;;;;;;6220243;23;20011;-80
2023/04/27 05:42:40;;;;;;;8.25;4.53;;;13.40;99.90;;;;;;6215614;23;20001;-84
2023/04/27 05:45:06;;;;;;;12.55;5.70;;;14.20;99.90;;;;;;6214380;23;20074;-84
2023/04/27 05:47:32;;;;;;;6.03;3.17;;;14.90;99.90;;;;;;6214126;23;20313;-81
2023/04/27 05:49:57;;;;;;;8.98;3.22;;;15.60;97.30;;;;;;6214121;23;20007;-81
2023/04/27 05:52:28;;;;;;;6.93;3.20;;;14.60;97.40;;;;;;6214352;23;20009;-84
2023/04/27 05:54:54;;;;;;;9.63;3.67;;;15.00;97.10;;;;;;6189976;23;20003;-81
2023/04/27 05:57:19;;;;;;;9.43;3.70;;;15.80;97.50;;;;;;6219405;23;20001;-82
2023/04/27 05:59:45;;;;;;;8.05;3.15;;;16.20;95.90;;;;;;6214742;23;20004;-83
2023/04/27 06:02:10;;;;;;;8.40;3.40;;;14.90;97.20;;;;;;6216621;23;20072;-82
2023/04/27 06:04:36;;;;;;;9.55;3.10;;;16.00;95.90;;;;;;6215670;23;20047;-84
2023/04/27 06:07:07;;;;;;;7.50;3.60;;;16.40;95.90;;;;;;6215112;23;20009;-80
2023/04/27 06:09:32;;;;;;;7.65;3.22;;;16.30;95.70;;;;;;6215245;23;20024;-84
2023/04/27 06:11:59;;;;;;;7.88;3.15;;;15.70;96.40;;;;;;6215398;23;20228;-82
2023/04/27 06:14:24;;;;;;;12.38;4.38;;;15.70;95.60;;;;;;6219326;23;20013;-81
2023/04/27 06:16:50;;;;;;;6.53;3.67;;;16.80;95.80;;;;;;6213673;22;20075;-84
2023/04/27 06:19:16;;;;;;;8.10;3.65;;;17.10;95.20;;;;;;6214672;23;20416;-82
2023/04/27 06:21:41;;;;;;;8.95;3.47;;;16.30;94.60;;;;;;6216154;23;20076;-83
2023/04/27 06:24:07;;;;;;;5.97;2.75;;;16.40;94.50;;;;;;6217548;23;20005;-82
2023/04/27 06:26:32;;;;;;;6.15;3.28;;;15.20;95.10;;;;;;6214049;23;20020;-81
2023/04/27 06:28:58;;;;;;;8.10;3.85;;;13.70;97.20;;;;;;6211380;23;20015;-80
2023/04/27 06:31:25;;;;;;;6.13;3.33;;;15.90;96.40;;;;;;6212489;23;20005;-82
2023/04/27 06:33:50;;;;;;;5.20;3.05;;;16.10;94.10;;;;;;6213836;23;20000;-81
2023/04/27 06:36:16;;;;;;;9.95;3.47;;;14.90;95.30;;;;;;6214227;23;20015;-82
2023/04/27 06:38:41;;;;;;;6.90;3.45;;;16.10;95.20;;;;;;6215143;23;20333;-81
2023/04/27 06:41:07;;;;;;;4.95;3.33;;;17.50;94.20;;;;;;6188862;23;20088;-82
2023/04/27 06:43:32;;;;;;;10.23;3.92;;;16.10;94.80;;;;;;6215939;23;20008;-80
2023/04/27 06:45:58;;;;;;;6.43;3.53;;;15.20;94.90;;;;;;6215506;23;20440;-82
2023/04/27 06:48:23;;;;;;;7.18;3.75;;;14.00;97.00;;;;;;6215383;23;20655;-81
2023/04/27 06:50:49;;;;;;;5.57;3.47;;;13.50;97.90;;;;;;6189176;23;20004;-81
2023/04/27 06:53:16;;;;;;;7.88;3.70;;;12.50;99.60;;;;;;6215812;23;20005;-80
2023/04/27 06:55:42;;;;;;;7.85;4.90;;;11.80;99.90;;;;;;6215450;23;20005;-82
2023/04/27 06:58:07;;;;;;;8.80;3.78;;;10.40;99.90;;;;;;6215653;23;20007;-83
2023/04/27 07:00:33;;;;;;;6.65;3.65;;;10.10;99.90;;;;;;6189118;23;20001;-83
2023/04/27 07:02:59;;;;;;;9.05;4.45;;;9.70;99.90;;;;;;6215328;23;20014;-80
2023/04/27 07:05:24;;;;;;;7.05;3.25;;;9.60;99.90;;;;;;6215633;23;20027;-80
2023/04/27 07:07:50;;;;;;;7.47;3.63;;;9.50;99.90;;;;;;6215120;23;20431;-82
2023/04/27 07:10:16;;;;;;;9.23;3.30;;;9.90;99.90;;;;;;6215681;23;20028;-81
2023/04/27 07:12:41;;;;;;;9.43;3.60;;;10.30;99.90;;;;;;6215507;23;20012;-81
2023/04/27 07:15:07;;;;;;;9.48;4.20;;;10.60;99.90;;;;;;6215633;23;20015;-82
2023/04/27 07:17:33;;;;;;;9.45;3.55;;;11.80;99.90;;;;;;6215836;23;20503;-80
2023/04/27 07:20:00;;;;;;;10.55;3.88;;;11.10;99.90;;;;;;6215750;23;20078;-80
2023/04/27 07:22:27;;;;;;;5.28;2.72;;;12.10;99.90;;;;;;6215305;23;20011;-80
2023/04/27 07:24:53;;;;;;;7.43;3.35;;;13.40;99.80;;;;;;6215482;23;20027;-82
2023/04/27 07:27:19;;;;;;;11.48;3.80;;;15.00;97.20;;;;;;6215013;23;20436;-80
2023/04/27 07:29:44;;;;;;;8.23;3.30;;;15.40;97.20;;;;;;6214878;23;20016;-80
2023/04/27 07:32:10;;;;;;;6.32;3.35;;;14.60;96.70;;;;;;6212694;23;20030;-78
2023/04/27 07:34:35;;;;;;;7.25;3.85;;;13.60;97.10;;;;;;6212749;23;20004;-80
2023/04/27 07:37:01;;;;;;;5.30;3.30;;;13.50;98.80;;;;;;6214538;23;20032;-79
2023/04/27 07:39:27;;;;;;;13.00;4.47;;;14.30;98.00;;;;;;6215077;23;20005;-78
2023/04/27 07:41:53;;;;;;;6.93;3.13;;;14.20;98.90;;;;;;6214899;23;20024;-78
2023/04/27 07:44:20;;;;;;;5.18;2.78;;;13.90;97.80;;;;;;6214921;23;20008;-78
2023/04/27 07:46:47;;;;;;;7.18;3.05;;;12.80;98.80;;;;;;6214223;23;20126;-77
2023/04/27 07:49:14;;;;;;;6.55;2.88;;;12.60;99.60;;;;;;6214941;23;20005;-78
2023/04/27 07:51:39;;;;;;;7.63;3.15;;;11.20;98.30;;;;;;6215233;23;20009;-80
2023/04/27 07:54:05;;;;;;;8.48;3.33;;;10.40;99.90;;;;;;6214956;23;20051;-79
2023/04/27 07:56:31;;;;;;;6.63;2.70;;;10.00;99.90;;;;;;6218131;23;20004;-79
2023/04/27 07:58:57;;;;;;;8.70;3.47;;;10.10;99.90;;;;;;6231584;23;20004;-80
2023/04/27 08:01:23;;;;;;;6.88;3.00;;;10.10;99.90;;;;;;6228281;22;20060;-77
2023/04/27 08:03:48;;;;;;;8.30;3.10;;;10.20;99.90;;;;;;6239524;23;20059;-78
2023/04/27 08:06:14;;;;;;;9.90;3.50;;;9.80;99.90;;;;;;6226482;23;20016;-80
2023/04/27 08:08:40;;;;;;;6.05;2.65;;;9.40;99.90;;;;;;6214518;23;20004;-80
2023/04/27 08:11:09;;;;;;;9.65;3.30;;;9.50;99.90;;;;;;6214735;23;20301;-80
2023/04/27 08:13:35;;;;;;;6.10;3.07;;;9.10;99.90;;;;;;6213851;23;20008;-82
2023/04/27 08:16:00;;;;;;;7.10;2.92;;;9.00;99.90;;;;;;6214559;23;20012;-79
2023/04/27 08:18:26;;;;;;;9.80;3.90;;;9.40;99.90;;;;;;6214832;23;20008;-79
2023/04/27 08:20:52;;;;;;;6.20;3.25;;;10.50;99.90;;;;;;6214664;23;20356;-80
2023/04/27 08:23:18;;;;;;;6.57;3.03;;;11.10;99.90;;;;;;6214340;23;20012;-81
2023/04/27 08:25:44;;;;;;;7.20;3.00;;;11.00;99.90;;;;;;6214760;23;20011;-81
2023/04/27 08:28:10;;;;;;;4.40;2.65;;;10.50;99.90;;;;;;6214144;23;20094;-80
2023/04/27 08:30:35;;;;;;;8.35;2.72;;;10.10;99.90;;;;;;6213152;23;20363;-80
2023/04/27 08:33:01;;;;;;;8.30;3.30;;;9.50;99.90;;;;;;6213916;23;20092;-79
2023/04/27 08:35:26;;;;;;;6.13;2.63;;;9.60;99.90;;;;;;6213594;23;20314;-81
2023/04/27 08:37:53;;;;;;;4.35;2.53;;;10.20;99.90;;;;;;6213738;23;20001;-82
2023/04/27 08:40:19;;;;;;;10.50;3.20;;;11.20;99.90;;;;;;6214423;23;20005;-80
2023/04/27 08:42:59;;;;;;;4.90;3.05;;;11.60;99.90;;;;;;6214679;23;20324;-80
2023/04/27 08:45:26;;;;;;;5.30;2.73;;;11.30;99.90;;;;;;6214995;23;20012;-80
2023/04/27 08:47:52;;;;;;;7.78;2.85;;;11.50;99.90;;;;;;6214147;23;20103;-80
2023/04/27 08:50:18;;;;;;;5.43;2.63;;;10.80;99.90;;;;;;6212931;23;20054;-80
2023/04/27 08:52:48;;;;;;;4.60;2.40;;;10.40;98.50;;;;;;6214185;23;20372;-78
2023/04/27 08:55:14;;;;;;;5.85;2.58;;;10.20;99.50;;;;;;6213240;23;20019;-79
2023/04/27 08:57:40;;;;;;;5.50;2.60;;;10.40;99.90;;;;;;6212626;23;20378;-80
2023/04/27 09:00:12;;;;;;;3.85;2.20;;;10.30;99.90;;;;;;6209113;23;20305;-80
2023/04/27 09:02:45;;;;;;;5.22;2.47;;;9.90;99.90;;;;;;6214398;23;20031;-79
2023/04/27 09:05:21;;;;;;;8.35;2.20;;;9.70;99.90;;;;;;6213556;23;20005;-81
2023/04/27 09:08:16;;;;;;;5.05;2.40;;;10.30;99.90;;;;;;6213755;23;20337;-79
2023/04/27 09:10:49;;;;;;;2.95;1.98;;;11.10;98.40;;;;;;6187795;23;20320;-79
2023/04/27 09:13:16;;;;;;;5.90;2.25;;;11.60;99.80;;;;;;6213297;23;20337;-80
2023/04/27 09:15:47;;;;;;;6.07;2.72;;;12.10;99.50;;;;;;6213966;23;20013;-80
2023/04/27 09:18:20;;;;;;;5.65;2.10;;;11.70;97.90;;;;;;6212961;23;20008;-79
2023/04/27 09:20:51;;;;;;;3.97;1.77;;;11.40;98.30;;;;;;6213812;23;20054;-81
2023/04/27 09:23:26;;;;;;;;;;;10.90;97.70;;;;;;6214371;23;20057;-81
2023/04/27 09:25:53;;;;;;;5.07;2.10;;;10.80;98.10;;;;;;6213457;23;20247;-79
2023/04/27 09:28:19;;;;;;;11.90;2.42;;;11.00;98.00;;;;;;6213460;23;20424;-81
2023/04/27 09:30:53;;;;;;;10.45;3.08;;;11.30;98.30;;;;;;6213803;23;20011;-81
2023/04/27 09:33:26;;;;;;;9.63;2.58;;;11.90;98.60;;;;;;6211716;23;20082;-80
2023/04/27 09:35:53;;;;;;;4.38;2.35;;;12.60;98.60;;;;;;6213821;23;20008;-80
2023/04/27 09:38:20;;;;;;;6.20;2.47;;;13.30;97.90;;;;;;6213153;23;20000;-80
2023/04/27 09:40:46;;;;;;;69.30;62.53;;;13.40;97.00;;;;;;6213758;23;20004;-82
2023/04/27 09:43:12;;;;;;;6.55;2.88;;;13.50;96.90;;;;;;6213839;23;19996;-79
2023/04/27 09:45:38;;;;;;;5.22;2.60;;;13.80;97.30;;;;;;6213720;23;20005;-80
2023/04/27 09:48:07;;;;;;;20.45;3.58;;;14.10;96.50;;;;;;6213728;23;20051;-79
2023/04/27 09:50:41;;;;;;;5.55;2.40;;;14.40;96.60;;;;;;6214045;23;20004;-79
2023/04/27 09:53:12;;;;;;;4.88;2.33;;;15.00;95.40;;;;;;6213430;23;20084;-81
2023/04/27 09:55:53;;;;;;;5.72;3.22;;;14.80;95.30;;;;;;6213268;23;20035;-79
2023/04/27 09:58:24;;;;;;;;;;;14.30;94.90;;;;;;6213626;23;20008;-79
2023/04/27 10:01:20;;;;;;;5.30;2.13;;;13.40;93.50;;;;;;6211408;23;19938;-80
2023/04/27 10:04:12;;;;;;;7.68;1.95;;;13.30;94.20;;;;;;6213301;23;20080;-79
2023/04/27 10:06:58;;;;;;;5.65;1.92;;;12.80;95.40;;;;;;6189483;23;20028;-78
2023/04/27 10:09:25;;;;;;;7.55;2.38;;;12.70;93.50;;;;;;5974032;23;158759;-80
2023/04/27 10:13:00;;;;;;;6.00;2.17;;;12.10;94.30;;;;;;4977625;28;109502;-81
